createdAt,value
2017-02-21T00:00:49.474Z,2.58
2017-02-21T00:02:00.173Z,2.59
2017-02-21T00:03:10.490Z,2.64
2017-02-21T00:04:21.187Z,2.7
2017-02-21T00:05:31.889Z,2.62
2017-02-21T00:06:42.644Z,2.64
2017-02-21T00:07:52.958Z,2.61
2017-02-21T00:09:02.866Z,2.68
2017-02-21T00:10:13.199Z,2.62
2017-02-21T00:11:23.903Z,2.61
2017-02-21T00:12:34.651Z,2.62
2017-02-21T00:13:45.351Z,2.62
2017-02-21T00:14:56.054Z,2.64
2017-02-21T00:16:06.748Z,2.52
2017-02-21T00:17:17.065Z,2.59
2017-02-21T00:18:27.771Z,2.59
2017-02-21T00:19:38.502Z,2.55
2017-02-21T00:20:48.812Z,2.55
2017-02-21T00:21:59.533Z,2.54
2017-02-21T00:23:09.865Z,2.61
2017-02-21T00:24:20.190Z,2.5
2017-02-21T00:25:30.516Z,2.47
2017-02-21T00:26:41.525Z,2.52
2017-02-21T00:27:52.242Z,2.52
2017-02-21T00:29:02.951Z,2.54
2017-02-21T00:30:13.647Z,2.43
2017-02-21T00:31:24.365Z,2.54
2017-02-21T00:32:35.077Z,2.44
2017-02-21T00:33:45.784Z,2.51
2017-02-21T00:34:56.085Z,2.5
2017-02-21T00:36:06.791Z,2.54
2017-02-21T00:37:16.723Z,2.59
2017-02-21T00:38:27.430Z,2.52
2017-02-21T00:39:38.142Z,2.5
2017-02-21T00:40:48.835Z,2.54
2017-02-21T00:41:59.542Z,2.51
2017-02-21T00:43:09.859Z,2.47
2017-02-21T00:44:20.192Z,2.54
2017-02-21T00:45:30.102Z,2.5
2017-02-21T00:46:40.403Z,2.44
2017-02-21T00:47:51.135Z,2.41
2017-02-21T00:49:01.850Z,2.4
2017-02-21T00:50:12.561Z,2.37
2017-02-21T00:51:22.898Z,2.41
2017-02-21T00:52:33.590Z,2.41
2017-02-21T00:53:44.314Z,2.34
2017-02-21T00:54:55.025Z,2.39
2017-02-21T00:56:05.728Z,2.37
2017-02-21T00:57:16.439Z,2.36
2017-02-21T00:58:27.149Z,2.36
2017-02-21T00:59:37.841Z,2.37
2017-02-21T01:00:48.566Z,2.4
2017-02-21T01:01:59.262Z,2.34
2017-02-21T01:03:09.977Z,2.22
2017-02-21T01:04:20.739Z,2.36
2017-02-21T01:05:31.449Z,2.3
2017-02-21T01:06:42.163Z,2.37
2017-02-21T01:07:52.865Z,2.36
2017-02-21T01:09:03.187Z,2.39
2017-02-21T01:10:13.500Z,2.28
2017-02-21T01:11:24.248Z,2.4
2017-02-21T01:12:34.962Z,2.34
2017-02-21T01:13:45.665Z,2.28
2017-02-21T01:14:56.001Z,2.26
2017-02-21T01:16:06.712Z,2.25
2017-02-21T01:17:17.016Z,2.32
2017-02-21T01:18:27.746Z,2.37
2017-02-21T01:19:38.470Z,2.25
2017-02-21T01:20:49.177Z,2.21
2017-02-21T01:21:59.885Z,2.28
2017-02-21T01:23:10.208Z,2.3
2017-02-21T01:24:20.912Z,2.34
2017-02-21T01:25:31.615Z,2.26
2017-02-21T01:26:42.316Z,2.19
2017-02-21T01:27:53.048Z,2.19
2017-02-21T01:29:03.777Z,2.15
2017-02-21T01:30:14.087Z,2.18
2017-02-21T01:31:24.804Z,2.26
2017-02-21T01:32:35.529Z,2.22
2017-02-21T01:33:45.830Z,2.18
2017-02-21T01:34:56.566Z,2.19
2017-02-21T01:36:07.263Z,2.18
2017-02-21T01:37:17.564Z,2.16
2017-02-21T01:38:28.268Z,2.15
2017-02-21T01:39:39.003Z,2.15
2017-02-21T01:40:49.350Z,2.15
2017-02-21T01:42:00.040Z,2.14
2017-02-21T01:43:10.346Z,1.97
2017-02-21T01:44:21.060Z,2.12
2017-02-21T01:45:31.356Z,2.05
2017-02-21T01:46:42.116Z,2.03
2017-02-21T01:47:52.017Z,2.05
2017-02-21T01:49:02.793Z,2.03
2017-02-21T01:50:13.494Z,2.14
2017-02-21T01:51:24.194Z,2.03
2017-02-21T01:52:34.508Z,2.14
2017-02-21T01:53:45.198Z,2.03
2017-02-21T01:54:55.915Z,2.05
2017-02-21T01:56:06.620Z,2.04
2017-02-21T01:57:17.333Z,2.14
2017-02-21T01:58:28.039Z,2.04
2017-02-21T01:59:38.757Z,2.07
2017-02-21T02:00:49.469Z,2.12
2017-02-21T02:02:00.214Z,2.12
2017-02-21T02:03:10.516Z,2.12
2017-02-21T02:04:20.820Z,2.12
2017-02-21T02:05:31.525Z,2.12
2017-02-21T02:06:42.233Z,2.18
2017-02-21T02:07:52.943Z,2.16
2017-02-21T02:09:03.666Z,2.1
2017-02-21T02:10:14.357Z,2.15
2017-02-21T02:11:24.699Z,2.1
2017-02-21T02:12:35.425Z,2.14
2017-02-21T02:13:46.132Z,2.12
2017-02-21T02:14:56.861Z,2.16
2017-02-21T02:16:07.578Z,2.05
2017-02-21T02:17:18.317Z,2.01
2017-02-21T02:18:29.043Z,2.04
2017-02-21T02:19:39.754Z,2.05
2017-02-21T02:20:50.064Z,2.08
2017-02-21T02:22:00.767Z,2.1
2017-02-21T02:23:11.082Z,2
2017-02-21T02:24:21.808Z,2.12
2017-02-21T02:25:32.520Z,2.14
2017-02-21T02:26:42.845Z,2.08
2017-02-21T02:27:53.576Z,1.89
2017-02-21T02:29:04.282Z,1.79
2017-02-21T02:30:14.989Z,1.75
2017-02-21T02:31:25.739Z,1.7
2017-02-21T02:32:36.445Z,1.79
2017-02-21T02:33:47.162Z,1.75
2017-02-21T02:34:57.893Z,1.78
2017-02-21T02:36:08.206Z,1.61
2017-02-21T02:37:18.125Z,1.7
2017-02-21T02:38:28.817Z,1.61
2017-02-21T02:39:39.142Z,1.57
2017-02-21T02:40:49.067Z,1.52
2017-02-21T02:41:59.376Z,1.38
2017-02-21T02:43:10.080Z,1.43
2017-02-21T02:44:20.398Z,1.43
2017-02-21T02:45:31.092Z,1.24
2017-02-21T02:46:41.793Z,1.14
2017-02-21T02:47:52.496Z,1.03
2017-02-21T02:49:03.195Z,1.16
2017-02-21T02:50:13.902Z,1.1
2017-02-21T02:51:24.596Z,1.21
2017-02-21T02:52:35.343Z,1.22
2017-02-21T02:53:46.036Z,1.32
2017-02-21T02:54:56.767Z,1.32
2017-02-21T02:56:07.460Z,1.49
2017-02-21T02:57:17.392Z,1.45
2017-02-21T02:58:28.092Z,1.49
2017-02-21T02:59:38.794Z,1.52
2017-02-21T03:00:49.502Z,1.58
2017-02-21T03:02:00.210Z,1.66
2017-02-21T03:03:10.953Z,1.57
2017-02-21T03:04:21.293Z,1.64
2017-02-21T03:05:31.770Z,1.56
2017-02-21T03:06:42.475Z,1.48
2017-02-21T03:07:52.794Z,1.57
2017-02-21T03:09:03.496Z,1.6
2017-02-21T03:10:14.206Z,1.64
2017-02-21T03:11:24.901Z,1.53
2017-02-21T03:12:35.615Z,1.5
2017-02-21T03:13:45.928Z,1.52
2017-02-21T03:14:56.630Z,1.57
2017-02-21T03:16:07.350Z,1.6
2017-02-21T03:17:18.056Z,1.7
2017-02-21T03:18:28.363Z,1.7
2017-02-21T03:19:38.299Z,1.64
2017-02-21T03:20:48.614Z,1.7
2017-02-21T03:21:59.331Z,1.68
2017-02-21T03:23:10.032Z,1.52
2017-02-21T03:24:20.760Z,1.34
2017-02-21T03:25:31.459Z,1.39
2017-02-21T03:26:41.760Z,1.48
2017-02-21T03:27:52.092Z,1.5
2017-02-21T03:29:02.831Z,1.56
2017-02-21T03:30:13.155Z,1.67
2017-02-21T03:31:23.868Z,1.67
2017-02-21T03:32:34.187Z,1.78
2017-02-21T03:33:44.891Z,1.71
2017-02-21T03:34:55.248Z,1.58
2017-02-21T03:36:05.968Z,1.68
2017-02-21T03:37:16.688Z,1.74
2017-02-21T03:38:27.392Z,1.74
2017-02-21T03:39:37.712Z,1.75
2017-02-21T03:40:48.004Z,1.75
2017-02-21T03:41:58.699Z,1.74
2017-02-21T03:43:09.448Z,1.67
2017-02-21T03:44:20.164Z,1.61
2017-02-21T03:45:30.873Z,1.67
2017-02-21T03:46:41.565Z,1.64
2017-02-21T03:47:52.266Z,1.58
2017-02-21T03:49:02.595Z,1.58
2017-02-21T03:50:13.315Z,1.45
2017-02-21T03:51:24.012Z,1.45
2017-02-21T03:52:34.755Z,1.34
2017-02-21T03:53:45.469Z,1.31
2017-02-21T03:54:55.769Z,1.27
2017-02-21T03:56:06.464Z,1.2
2017-02-21T03:57:16.796Z,1.21
2017-02-21T03:58:27.502Z,1.24
2017-02-21T03:59:38.207Z,1.3
2017-02-21T04:00:48.922Z,1.34
2017-02-21T04:01:59.628Z,1.27
2017-02-21T04:03:09.938Z,1.22
2017-02-21T04:04:20.649Z,1.16
2017-02-21T04:05:31.342Z,1.03
2017-02-21T04:06:41.649Z,1.18
2017-02-21T04:07:52.374Z,1.2
2017-02-21T04:09:03.088Z,1.25
2017-02-21T04:10:13.794Z,1.13
2017-02-21T04:11:24.519Z,1
2017-02-21T04:12:35.217Z,1.1
2017-02-21T04:13:45.920Z,1.03
2017-02-21T04:14:56.623Z,1.02
2017-02-21T04:16:07.327Z,1.06
2017-02-21T04:17:18.057Z,1.04
2017-02-21T04:18:28.769Z,1.09
2017-02-21T04:19:39.507Z,1.09
2017-02-21T04:20:50.217Z,1.13
2017-02-21T04:22:02.884Z,1.06
2017-02-21T04:23:13.581Z,1.1
2017-02-21T04:24:24.280Z,1.04
2017-02-21T04:25:35.001Z,1.07
2017-02-21T04:26:45.707Z,1.22
2017-02-21T04:27:56.026Z,1.14
2017-02-21T04:29:06.739Z,1.13
2017-02-21T04:30:17.467Z,1.21
2017-02-21T04:31:28.165Z,1.21
2017-02-21T04:32:38.881Z,1.21
2017-02-21T04:33:49.595Z,1.22
2017-02-21T04:34:59.910Z,1.28
2017-02-21T04:36:10.232Z,1.24
2017-02-21T04:37:20.966Z,1.36
2017-02-21T04:38:31.699Z,1.39
2017-02-21T04:39:42.025Z,1.32
2017-02-21T04:40:52.325Z,1.42
2017-02-21T04:42:02.644Z,1.42
2017-02-21T04:43:12.947Z,1.48
2017-02-21T04:44:23.658Z,1.49
2017-02-21T04:45:34.354Z,1.53
2017-02-21T04:46:45.058Z,1.53
2017-02-21T04:47:55.759Z,1.49
2017-02-21T04:49:06.463Z,1.49
2017-02-21T04:50:17.180Z,1.48
2017-02-21T04:51:27.903Z,1.53
2017-02-21T04:52:38.595Z,1.57
2017-02-21T04:53:49.304Z,1.58
2017-02-21T04:55:00.003Z,1.58
2017-02-21T04:56:10.314Z,1.56
2017-02-21T04:57:21.025Z,1.56
2017-02-21T04:58:31.736Z,1.57
2017-02-21T04:59:42.438Z,1.57
2017-02-21T05:00:53.151Z,1.53
2017-02-21T05:02:03.843Z,1.56
2017-02-21T05:03:14.557Z,1.49
2017-02-21T05:04:25.285Z,1.5
2017-02-21T05:05:35.993Z,1.58
2017-02-21T05:06:46.695Z,1.57
2017-02-21T05:07:57.425Z,1.58
2017-02-21T05:09:07.717Z,1.58
2017-02-21T05:10:18.022Z,1.63
2017-02-21T05:11:28.726Z,1.64
2017-02-21T05:12:39.429Z,1.7
2017-02-21T05:13:49.749Z,1.6
2017-02-21T05:15:00.455Z,1.5
2017-02-21T05:16:11.158Z,1.57
2017-02-21T05:17:21.845Z,1.57
2017-02-21T05:18:32.554Z,1.58
2017-02-21T05:19:42.461Z,1.58
2017-02-21T05:20:52.399Z,1.58
2017-02-21T05:22:03.134Z,1.58
2017-02-21T05:23:13.055Z,1.66
2017-02-21T05:24:23.356Z,1.63
2017-02-21T05:25:34.056Z,1.66
2017-02-21T05:26:44.795Z,1.63
2017-02-21T05:27:55.113Z,1.66
2017-02-21T05:29:05.822Z,1.64
2017-02-21T05:30:16.125Z,1.64
2017-02-21T05:31:26.827Z,1.64
2017-02-21T05:32:37.523Z,1.68
2017-02-21T05:33:47.818Z,1.61
2017-02-21T05:34:58.527Z,1.61
2017-02-21T05:36:09.229Z,1.63
2017-02-21T05:37:19.933Z,1.64
2017-02-21T05:38:30.627Z,1.61
2017-02-21T05:39:41.327Z,1.6
2017-02-21T05:40:52.022Z,1.6
2017-02-21T05:42:02.739Z,1.6
2017-02-21T05:43:13.051Z,1.57
2017-02-21T05:44:23.373Z,1.58
2017-02-21T05:45:34.086Z,1.56
2017-02-21T05:46:44.792Z,1.5
2017-02-21T05:47:55.498Z,1.5
2017-02-21T05:49:05.804Z,1.53
2017-02-21T05:50:16.514Z,1.5
2017-02-21T05:51:27.229Z,1.46
2017-02-21T05:52:37.937Z,1.43
2017-02-21T05:53:48.635Z,1.43
2017-02-21T05:54:59.421Z,1.31
2017-02-21T05:56:10.123Z,1.32
2017-02-21T05:57:20.053Z,1.38
2017-02-21T05:58:30.777Z,1.31
2017-02-21T05:59:41.472Z,1.36
2017-02-21T06:00:51.772Z,1.32
2017-02-21T06:02:02.478Z,1.36
2017-02-21T06:03:12.398Z,1.34
2017-02-21T06:04:22.716Z,1.3
2017-02-21T06:05:33.427Z,1.3
2017-02-21T06:06:44.188Z,1.34
2017-02-21T06:07:54.888Z,1.31
2017-02-21T06:09:05.594Z,1.32
2017-02-21T06:10:15.898Z,1.36
2017-02-21T06:11:26.198Z,1.38
2017-02-21T06:12:36.897Z,1.4
2017-02-21T06:13:49.205Z,1.34
2017-02-21T06:14:59.904Z,1.39
2017-02-21T06:16:10.614Z,1.34
2017-02-21T06:17:21.322Z,1.4
2017-02-21T06:18:32.043Z,1.38
2017-02-21T06:19:42.749Z,1.45
2017-02-21T06:20:53.457Z,1.42
2017-02-21T06:22:04.157Z,1.49
2017-02-21T06:23:14.463Z,1.5
2017-02-21T06:24:25.149Z,1.57
2017-02-21T06:25:35.475Z,1.57
2017-02-21T06:26:46.192Z,1.53
2017-02-21T06:27:56.900Z,1.56
2017-02-21T06:29:07.590Z,1.57
2017-02-21T06:30:17.496Z,1.53
2017-02-21T06:31:28.199Z,1.74
2017-02-21T06:32:38.909Z,1.7
2017-02-21T06:33:49.213Z,1.7
2017-02-21T06:34:59.913Z,1.64
2017-02-21T06:36:10.220Z,1.7
2017-02-21T06:37:20.527Z,1.67
2017-02-21T06:38:31.239Z,1.63
2017-02-21T06:39:41.945Z,1.66
2017-02-21T06:40:52.263Z,1.58
2017-02-21T06:42:02.970Z,1.56
2017-02-21T06:43:13.275Z,1.57
2017-02-21T06:44:23.977Z,1.42
2017-02-21T06:45:34.302Z,1.57
2017-02-21T06:46:45.022Z,1.56
2017-02-21T06:47:54.935Z,1.48
2017-02-21T06:49:05.631Z,1.45
2017-02-21T06:50:16.347Z,1.49
2017-02-21T06:51:27.045Z,1.34
2017-02-21T06:52:37.755Z,1.34
2017-02-21T06:53:48.052Z,1.32
2017-02-21T06:54:58.795Z,1.38
2017-02-21T06:56:09.519Z,1.48
2017-02-21T06:57:20.227Z,1.46
2017-02-21T06:58:30.932Z,1.45
2017-02-21T06:59:41.631Z,1.56
2017-02-21T07:00:51.931Z,1.61
2017-02-21T07:02:02.641Z,1.5
2017-02-21T07:03:12.571Z,1.5
2017-02-21T07:04:23.321Z,1.52
2017-02-21T07:05:34.026Z,1.63
2017-02-21T07:06:44.737Z,1.56
2017-02-21T07:07:55.449Z,1.58
2017-02-21T07:09:06.192Z,1.74
2017-02-21T07:10:16.889Z,1.7
2017-02-21T07:11:27.610Z,1.61
2017-02-21T07:12:38.328Z,1.6
2017-02-21T07:13:48.624Z,1.58
2017-02-21T07:14:59.372Z,1.58
2017-02-21T07:16:10.096Z,1.56
2017-02-21T07:17:20.804Z,1.5
2017-02-21T07:18:31.502Z,1.58
2017-02-21T07:19:42.235Z,1.57
2017-02-21T07:20:52.958Z,1.58
2017-02-21T07:22:03.672Z,1.5
2017-02-21T07:23:13.973Z,1.61
2017-02-21T07:24:24.687Z,1.58
2017-02-21T07:25:35.394Z,1.57
2017-02-21T07:26:46.109Z,1.6
2017-02-21T07:27:56.415Z,1.6
2017-02-21T07:29:06.742Z,1.56
2017-02-21T07:30:17.052Z,1.6
2017-02-21T07:31:27.770Z,1.6
2017-02-21T07:32:38.476Z,1.58
2017-02-21T07:33:48.793Z,1.56
2017-02-21T07:34:59.492Z,1.52
2017-02-21T07:36:09.815Z,1.64
2017-02-21T07:37:20.521Z,1.49
2017-02-21T07:38:31.236Z,1.32
2017-02-21T07:39:41.961Z,1.21
2017-02-21T07:40:52.256Z,1.27
2017-02-21T07:42:02.979Z,1.2
2017-02-21T07:43:13.291Z,1.18
2017-02-21T07:44:24.006Z,1.14
2017-02-21T07:45:34.325Z,1.21
2017-02-21T07:46:44.675Z,1.25
2017-02-21T07:47:54.987Z,1.22
2017-02-21T07:49:05.703Z,1.3
2017-02-21T07:50:16.398Z,1.31
2017-02-21T07:51:27.091Z,1.34
2017-02-21T07:52:37.402Z,1.34
2017-02-21T07:53:48.106Z,1.43
2017-02-21T07:54:58.857Z,1.53
2017-02-21T07:56:09.567Z,1.56
2017-02-21T07:57:20.268Z,1.63
2017-02-21T07:58:30.966Z,1.61
2017-02-21T07:59:41.684Z,1.64
2017-02-21T08:00:52.392Z,1.7
2017-02-21T08:02:03.084Z,1.75
2017-02-21T08:03:13.802Z,1.81
2017-02-21T08:04:24.125Z,1.84
2017-02-21T08:05:34.438Z,1.84
2017-02-21T08:06:45.145Z,1.86
2017-02-21T08:07:55.842Z,1.97
2017-02-21T08:09:06.554Z,2
2017-02-21T08:10:17.265Z,1.97
2017-02-21T08:11:27.974Z,2.05
2017-02-21T08:12:38.671Z,2.01
2017-02-21T08:13:49.378Z,2.03
2017-02-21T08:15:00.092Z,2.12
2017-02-21T08:16:10.006Z,1.97
2017-02-21T08:17:20.727Z,2.03
2017-02-21T08:18:31.418Z,2.14
2017-02-21T08:19:42.128Z,2.04
2017-02-21T08:20:52.043Z,2.15
2017-02-21T08:22:02.353Z,2.16
2017-02-21T08:23:12.679Z,2.21
2017-02-21T08:24:23.391Z,2.28
2017-02-21T08:25:34.097Z,2.3
2017-02-21T08:26:44.816Z,2.36
2017-02-21T08:27:55.138Z,2.34
2017-02-21T08:29:05.467Z,2.4
2017-02-21T08:30:15.819Z,2.43
2017-02-21T08:31:26.543Z,2.41
2017-02-21T08:32:37.249Z,2.55
2017-02-21T08:33:47.942Z,2.5
2017-02-21T08:34:57.860Z,2.55
2017-02-21T08:36:08.178Z,2.47
2017-02-21T08:37:18.897Z,2.58
2017-02-21T08:38:29.592Z,2.55
2017-02-21T08:39:39.911Z,2.57
2017-02-21T08:40:50.617Z,2.61
2017-02-21T08:42:01.325Z,2.61
2017-02-21T08:43:12.052Z,2.61
2017-02-21T08:44:22.772Z,2.7
2017-02-21T08:45:33.479Z,2.59
2017-02-21T08:46:44.175Z,2.58
2017-02-21T08:47:54.891Z,2.69
2017-02-21T08:49:05.602Z,2.59
2017-02-21T08:50:15.511Z,2.61
2017-02-21T08:51:26.214Z,2.68
2017-02-21T08:52:36.919Z,2.57
2017-02-21T08:53:47.265Z,2.68
2017-02-21T08:54:57.974Z,2.75
2017-02-21T08:56:08.306Z,2.7
2017-02-21T08:57:19.001Z,2.75
2017-02-21T08:58:29.723Z,2.87
2017-02-21T08:59:40.023Z,2.9
2017-02-21T09:00:50.339Z,2.88
2017-02-21T09:02:01.046Z,2.94
2017-02-21T09:03:11.745Z,2.97
2017-02-21T09:04:22.473Z,3.08
2017-02-21T09:05:33.180Z,3.22
2017-02-21T09:06:43.890Z,3.27
2017-02-21T09:07:54.202Z,3.3
2017-02-21T09:09:04.914Z,3.29
2017-02-21T09:10:15.632Z,3.37
2017-02-21T09:11:26.343Z,3.41
2017-02-21T09:12:37.050Z,3.46
2017-02-21T09:13:47.761Z,3.46
2017-02-21T09:14:58.468Z,3.52
2017-02-21T09:16:08.774Z,3.56
2017-02-21T09:17:19.481Z,3.52
2017-02-21T09:18:30.184Z,3.56
2017-02-21T09:19:40.525Z,3.58
2017-02-21T09:20:50.846Z,3.56
2017-02-21T09:22:01.573Z,3.56
2017-02-21T09:23:11.898Z,3.68
2017-02-21T09:24:22.596Z,3.63
2017-02-21T09:25:33.318Z,3.64
2017-02-21T09:26:43.248Z,3.7
2017-02-21T09:27:54.048Z,3.68
2017-02-21T09:29:04.777Z,3.7
2017-02-21T09:30:15.122Z,3.74
2017-02-21T09:31:25.833Z,3.71
2017-02-21T09:32:36.569Z,3.74
2017-02-21T09:33:47.290Z,3.78
2017-02-21T09:34:57.989Z,3.74
2017-02-21T09:36:08.695Z,3.77
2017-02-21T09:37:19.420Z,3.78
2017-02-21T09:38:30.146Z,3.84
2017-02-21T09:39:40.056Z,3.78
2017-02-21T09:40:50.755Z,3.85
2017-02-21T09:42:01.461Z,3.88
2017-02-21T09:43:12.165Z,3.99
2017-02-21T09:44:22.473Z,4.03
2017-02-21T09:45:33.170Z,4.1
2017-02-21T09:46:43.891Z,4.1
2017-02-21T09:47:54.215Z,4.27
2017-02-21T09:49:04.929Z,4.38
2017-02-21T09:50:15.629Z,4.39
2017-02-21T09:51:26.374Z,4.48
2017-02-21T09:52:37.103Z,4.42
2017-02-21T09:53:47.821Z,4.64
2017-02-21T09:54:58.545Z,4.71
2017-02-21T09:56:09.250Z,4.75
2017-02-21T09:57:19.958Z,4.76
2017-02-21T09:58:30.699Z,4.78
2017-02-21T09:59:41.403Z,5
2017-02-21T10:00:52.112Z,5
2017-02-21T10:02:02.810Z,4.87
2017-02-21T10:03:13.139Z,4.6
2017-02-21T10:04:23.450Z,4.42
2017-02-21T10:05:34.183Z,4.43
2017-02-21T10:06:44.896Z,4.48
2017-02-21T10:07:55.614Z,4.71
2017-02-21T10:09:06.315Z,4.9
2017-02-21T10:10:16.644Z,5.15
2017-02-21T10:11:27.351Z,5.36
2017-02-21T10:12:37.658Z,5.51
2017-02-21T10:13:48.359Z,5.64
2017-02-21T10:14:58.710Z,5.8
2017-02-21T10:16:09.046Z,5.98
2017-02-21T10:17:19.357Z,6.12
2017-02-21T10:18:30.056Z,6.34
2017-02-21T10:19:40.790Z,6.41
2017-02-21T10:20:51.502Z,6.47
2017-02-21T10:22:02.230Z,6.59
2017-02-21T10:23:12.944Z,6.77
2017-02-21T10:24:22.882Z,6.95
2017-02-21T10:25:33.584Z,7.07
2017-02-21T10:26:44.259Z,7.01
2017-02-21T10:27:54.570Z,7.11
2017-02-21T10:29:05.296Z,7.07
2017-02-21T10:30:15.232Z,7.08
2017-02-21T10:31:25.558Z,7.08
2017-02-21T10:32:36.258Z,7.04
2017-02-21T10:33:46.952Z,7.15
2017-02-21T10:34:57.680Z,7.21
2017-02-21T10:36:07.989Z,7.03
2017-02-21T10:37:17.534Z,7.15
2017-02-21T10:38:28.274Z,7.07
2017-02-21T10:39:38.994Z,7.07
2017-02-21T10:40:48.929Z,6.96
2017-02-21T10:41:59.641Z,7.04
2017-02-21T10:43:09.993Z,7.01
2017-02-21T10:44:20.325Z,6.95
2017-02-21T10:45:31.045Z,7.01
2017-02-21T10:46:41.764Z,7.01
2017-02-21T10:47:52.088Z,6.87
2017-02-21T10:49:02.806Z,6.92
2017-02-21T10:50:13.508Z,6.95
2017-02-21T10:51:23.825Z,6.93
2017-02-21T10:52:34.548Z,6.93
2017-02-21T10:53:45.312Z,6.8
2017-02-21T10:54:55.644Z,6.82
2017-02-21T10:56:06.343Z,6.87
2017-02-21T10:57:16.686Z,6.74
2017-02-21T10:58:27.019Z,6.77
2017-02-21T10:59:37.737Z,6.77
2017-02-21T11:00:48.460Z,6.78
2017-02-21T11:01:59.170Z,6.89
2017-02-21T11:03:09.886Z,6.85
2017-02-21T11:04:20.601Z,6.82
2017-02-21T11:05:31.337Z,6.92
2017-02-21T11:06:42.057Z,6.9
2017-02-21T11:07:52.782Z,6.85
2017-02-21T11:09:03.490Z,6.89
2017-02-21T11:10:14.208Z,6.93
2017-02-21T11:11:24.931Z,6.92
2017-02-21T11:12:35.638Z,6.86
2017-02-21T11:13:46.337Z,6.89
2017-02-21T11:14:56.653Z,6.9
2017-02-21T11:16:06.976Z,6.9
2017-02-21T11:17:17.298Z,6.77
2017-02-21T11:18:28.034Z,6.77
2017-02-21T11:19:38.736Z,6.67
2017-02-21T11:20:49.459Z,6.67
2017-02-21T11:22:00.195Z,6.74
2017-02-21T11:23:10.914Z,6.74
2017-02-21T11:24:21.227Z,6.6
2017-02-21T11:25:31.968Z,6.54
2017-02-21T11:26:42.287Z,6.65
2017-02-21T11:27:52.994Z,6.65
2017-02-21T11:29:02.924Z,6.74
2017-02-21T11:30:13.635Z,6.74
2017-02-21T11:31:23.967Z,6.82
2017-02-21T11:32:34.682Z,6.78
2017-02-21T11:33:45.393Z,6.86
2017-02-21T11:34:56.115Z,6.89
2017-02-21T11:36:06.414Z,7.07
2017-02-21T11:37:16.768Z,7.04
2017-02-21T11:38:27.500Z,7.1
2017-02-21T11:39:38.204Z,7.07
2017-02-21T11:40:48.917Z,7.19
2017-02-21T11:41:59.617Z,7.11
2017-02-21T11:43:09.946Z,7.21
2017-02-21T11:44:20.665Z,7.14
2017-02-21T11:45:31.396Z,7.23
2017-02-21T11:46:42.116Z,7.4
2017-02-21T11:47:52.832Z,7.67
2017-02-21T11:49:03.541Z,7.9
2017-02-21T11:50:14.273Z,8.03
2017-02-21T11:51:24.976Z,8.11
2017-02-21T11:52:35.684Z,8.09
2017-02-21T11:53:46.402Z,8.18
2017-02-21T11:54:57.117Z,8.61
2017-02-21T11:56:07.841Z,9.03
2017-02-21T11:57:18.153Z,9.37
2017-02-21T11:58:28.874Z,9.22
2017-02-21T11:59:39.609Z,9.18
2017-02-21T12:00:50.321Z,9.15
2017-02-21T12:02:01.047Z,9.56
2017-02-21T12:03:11.766Z,9.97
2017-02-21T12:04:22.476Z,10.17
2017-02-21T12:05:32.800Z,10.13
2017-02-21T12:06:43.523Z,10.03
2017-02-21T12:07:54.468Z,10.07
2017-02-21T12:09:04.784Z,10.21
2017-02-21T12:10:15.501Z,10.55
2017-02-21T12:11:25.812Z,10.57
2017-02-21T12:12:36.556Z,10.46
2017-02-21T12:13:47.281Z,10.36
2017-02-21T12:14:57.627Z,10.25
2017-02-21T12:16:08.351Z,10.03
2017-02-21T12:17:19.082Z,9.92
2017-02-21T12:18:29.911Z,10.49
2017-02-21T12:19:40.671Z,10.51
2017-02-21T12:20:50.992Z,10.24
2017-02-21T12:22:01.707Z,10.23
2017-02-21T12:23:12.443Z,10.42
2017-02-21T12:24:22.807Z,10.45
2017-02-21T12:25:32.749Z,10.58
2017-02-21T12:26:43.456Z,10.38
2017-02-21T12:27:53.775Z,10.15
2017-02-21T12:29:03.696Z,10.12
2017-02-21T12:30:14.030Z,9.99
2017-02-21T12:31:24.737Z,9.82
2017-02-21T12:32:35.442Z,9.55
2017-02-21T12:33:46.156Z,9.52
2017-02-21T12:34:56.871Z,9.34
2017-02-21T12:36:07.590Z,9.16
2017-02-21T12:37:17.508Z,9
2017-02-21T12:38:28.229Z,9
2017-02-21T12:39:38.957Z,8.92
2017-02-21T12:40:49.686Z,8.82
2017-02-21T12:41:59.619Z,8.97
2017-02-21T12:43:09.949Z,8.81
2017-02-21T12:44:20.672Z,8.75
2017-02-21T12:45:31.382Z,8.45
2017-02-21T12:46:42.099Z,8.26
2017-02-21T12:47:52.424Z,8.08
2017-02-21T12:49:03.155Z,7.66
2017-02-21T12:50:12.705Z,7.47
2017-02-21T12:51:23.410Z,7.39
2017-02-21T12:52:34.132Z,7.4
2017-02-21T12:53:44.844Z,7.36
2017-02-21T12:54:55.558Z,7.25
2017-02-21T12:56:06.274Z,7.21
2017-02-21T12:57:16.606Z,7.11
2017-02-21T12:58:27.322Z,7.05
2017-02-21T12:59:38.357Z,7.01
2017-02-21T13:00:48.669Z,6.62
2017-02-21T13:01:58.978Z,6.59
2017-02-21T13:03:09.321Z,6.62
2017-02-21T13:04:19.639Z,6.17
2017-02-21T13:05:30.360Z,5.97
2017-02-21T13:06:41.085Z,5.9
2017-02-21T13:07:51.814Z,5.94
2017-02-21T13:09:02.153Z,5.76
2017-02-21T13:10:12.858Z,5.8
2017-02-21T13:11:22.818Z,5.87
2017-02-21T13:12:33.538Z,5.95
2017-02-21T13:13:44.252Z,6.12
2017-02-21T13:14:54.965Z,6.2
2017-02-21T13:16:05.705Z,6.32
2017-02-21T13:17:16.024Z,6.41
2017-02-21T13:18:25.955Z,6.5
2017-02-21T13:19:36.290Z,6.35
2017-02-21T13:20:46.622Z,6.34
2017-02-21T13:21:57.336Z,6.41
2017-02-21T13:23:07.712Z,6.64
2017-02-21T13:24:18.418Z,6.82
2017-02-21T13:25:28.335Z,7.01
2017-02-21T13:26:38.655Z,7.08
2017-02-21T13:27:49.373Z,7.01
2017-02-21T13:29:00.098Z,7.05
2017-02-21T13:30:10.817Z,7.07
2017-02-21T13:31:21.543Z,7.01
2017-02-21T13:32:32.266Z,7.11
2017-02-21T13:33:42.988Z,6.87
2017-02-21T13:34:52.906Z,6.8
2017-02-21T13:36:03.610Z,7
2017-02-21T13:37:13.922Z,7.04
2017-02-21T13:38:24.664Z,6.97
2017-02-21T13:39:35.380Z,6.8
2017-02-21T13:40:45.711Z,6.74
2017-02-21T13:41:56.421Z,6.57
2017-02-21T13:43:07.183Z,6.36
2017-02-21T13:44:17.137Z,6.12
2017-02-21T13:45:27.854Z,5.88
2017-02-21T13:46:38.174Z,5.72
2017-02-21T13:47:48.888Z,5.62
2017-02-21T13:48:59.195Z,5.61
2017-02-21T13:50:09.955Z,5.52
2017-02-21T13:51:20.673Z,5.51
2017-02-21T13:52:31.388Z,5.31
2017-02-21T13:53:42.085Z,5.28
2017-02-21T13:54:52.395Z,5.1
2017-02-21T13:56:03.126Z,4.97
2017-02-21T13:57:13.439Z,4.9
2017-02-21T13:58:24.400Z,5.01
2017-02-21T13:59:34.717Z,5.12
2017-02-21T14:01:54.140Z,4.86
2017-02-21T14:03:03.188Z,4.53
2017-02-21T14:04:13.918Z,4.31
2017-02-21T14:05:24.642Z,4.25
2017-02-21T14:06:34.966Z,4.16
2017-02-21T14:07:45.687Z,4.06
2017-02-21T14:08:56.383Z,4.13
2017-02-21T14:10:06.742Z,4.28
2017-02-21T14:11:17.046Z,4.22
2017-02-21T14:12:27.761Z,4.04
2017-02-21T14:13:38.100Z,4.1
2017-02-21T14:14:48.835Z,4.12
2017-02-21T14:15:59.559Z,4.28
2017-02-21T14:17:09.886Z,4.25
2017-02-21T14:18:20.604Z,4.25
2017-02-21T14:19:31.342Z,4.09
2017-02-21T14:20:42.052Z,4.04
2017-02-21T14:21:52.364Z,3.99
2017-02-21T14:23:02.677Z,3.82
2017-02-21T14:24:12.988Z,3.73
2017-02-21T14:25:23.702Z,3.56
2017-02-21T14:26:34.423Z,3.63
2017-02-21T14:27:45.137Z,3.7
2017-02-21T14:28:55.846Z,3.67
2017-02-21T14:30:06.178Z,3.58
2017-02-21T14:31:16.496Z,3.41
2017-02-21T14:32:27.235Z,3.34
2017-02-21T14:33:37.553Z,3.22
2017-02-21T14:34:48.247Z,3.16
2017-02-21T14:35:58.992Z,3.09
2017-02-21T14:37:09.698Z,3.01
2017-02-21T14:38:20.414Z,2.98
2017-02-21T14:40:39.628Z,3.03
2017-02-21T14:41:50.380Z,3
2017-02-21T14:43:01.094Z,2.95
2017-02-21T14:44:11.406Z,3.18
2017-02-21T14:45:21.712Z,3.31
2017-02-21T14:46:32.461Z,3.19
2017-02-21T14:47:43.168Z,2.97
2017-02-21T14:48:53.898Z,2.94
2017-02-21T14:50:04.611Z,2.91
2017-02-21T14:51:15.326Z,2.72
2017-02-21T14:52:26.045Z,2.62
2017-02-21T14:53:36.758Z,2.58
2017-02-21T14:54:47.468Z,2.47
2017-02-21T14:55:57.782Z,2.34
2017-02-21T14:57:08.502Z,2.32
2017-02-21T14:58:19.199Z,2.39
2017-02-21T14:59:29.908Z,2.22
2017-02-21T15:00:40.617Z,2.19
2017-02-21T15:01:51.327Z,2.23
2017-02-21T15:03:02.029Z,2.19
2017-02-21T15:04:12.726Z,2.18
2017-02-21T15:05:23.439Z,2.14
2017-02-21T15:06:34.174Z,2.14
2017-02-21T15:07:44.892Z,2.18
2017-02-21T15:08:55.224Z,2.16
2017-02-21T15:10:05.138Z,2.16
2017-02-21T15:11:15.474Z,2.21
2017-02-21T15:12:25.790Z,2.12
2017-02-21T15:13:36.495Z,1.97
2017-02-21T15:14:47.209Z,2.04
2017-02-21T15:15:57.906Z,1.98
2017-02-21T15:17:08.237Z,1.98
2017-02-21T15:18:18.561Z,1.84
2017-02-21T15:19:28.874Z,1.86
2017-02-21T15:20:39.577Z,1.92
2017-02-21T15:21:50.276Z,1.97
2017-02-21T15:23:00.978Z,1.84
2017-02-21T15:24:11.325Z,1.86
2017-02-21T15:25:21.653Z,1.88
2017-02-21T15:26:32.377Z,1.85
2017-02-21T15:27:43.080Z,1.82
2017-02-21T15:28:53.803Z,1.81
2017-02-21T15:30:04.512Z,1.82
2017-02-21T15:31:14.812Z,1.76
2017-02-21T15:32:25.539Z,1.7
2017-02-21T15:33:36.233Z,1.7
2017-02-21T15:34:46.961Z,1.57
2017-02-21T15:35:57.274Z,1.53
2017-02-21T15:37:07.979Z,1.39
2017-02-21T15:38:17.493Z,1.38
2017-02-21T15:39:28.192Z,1.28
2017-02-21T15:40:38.490Z,1.24
2017-02-21T15:41:49.182Z,1.18
2017-02-21T15:42:59.098Z,1.12
2017-02-21T15:44:09.816Z,1.14
2017-02-21T15:45:20.122Z,1.09